createdAt,value
2019-04-03T00:01:04.042Z,30.62
2019-04-03T00:03:17.206Z,26.07
2019-04-03T00:04:22.075Z,26.20
2019-04-03T00:05:26.526Z,24.52
2019-04-03T00:06:31.290Z,27.67
2019-04-03T00:07:36.181Z,27.77
2019-04-03T00:08:41.044Z,25.90
2019-04-03T00:09:45.508Z,26.15
2019-04-03T00:10:50.271Z,26.52
2019-04-03T00:11:55.088Z,25.57
2019-04-03T00:12:59.572Z,29.55
2019-04-03T00:14:04.096Z,25.23
2019-04-03T00:15:09.244Z,27.90
2019-04-03T00:16:15.442Z,26.30
2019-04-03T00:17:19.860Z,26.57
2019-04-03T00:18:24.408Z,25.97
2019-04-03T00:19:29.237Z,28.30
2019-04-03T00:20:33.987Z,26.23
2019-04-03T00:21:38.511Z,27.25
2019-04-03T00:22:45.767Z,26.17
2019-04-03T00:23:52.291Z,30.75
2019-04-03T00:24:56.380Z,27.62
2019-04-03T00:26:01.228Z,28.23
2019-04-03T00:27:05.819Z,28.00
2019-04-03T00:28:10.273Z,28.25
2019-04-03T00:29:16.367Z,29.82
2019-04-03T00:30:22.505Z,27.45
2019-04-03T00:31:27.238Z,28.77
2019-04-03T00:32:31.709Z,28.20
2019-04-03T00:33:36.706Z,28.65
2019-04-03T00:34:42.103Z,29.77
2019-04-03T00:35:46.602Z,29.98
2019-04-03T00:36:52.910Z,25.10
2019-04-03T00:37:58.707Z,26.77
2019-04-03T00:39:04.805Z,36.58
2019-04-03T00:40:11.373Z,27.32
2019-04-03T00:41:15.834Z,24.23
2019-04-03T00:42:20.301Z,25.10
2019-04-03T00:43:25.320Z,26.15
2019-04-03T00:44:29.936Z,32.53
2019-04-03T00:45:34.392Z,27.93
2019-04-03T00:46:38.843Z,28.00
2019-04-03T00:47:43.659Z,27.82
2019-04-03T00:48:48.505Z,28.00
2019-04-03T00:49:53.016Z,25.12
2019-04-03T00:50:57.667Z,28.62
2019-04-03T00:52:02.260Z,28.20
2019-04-03T00:53:06.775Z,25.80
2019-04-03T00:54:11.236Z,30.08
2019-04-03T00:55:15.699Z,24.65
2019-04-03T00:56:20.454Z,26.27
2019-04-03T00:57:26.330Z,32.13
2019-04-03T00:58:42.689Z,28.85
2019-04-03T00:59:47.520Z,28.20
2019-04-03T01:00:51.975Z,28.30
2019-04-03T01:01:57.129Z,28.67
2019-04-03T01:03:02.735Z,28.90
2019-04-03T01:04:07.824Z,25.45
2019-04-03T01:05:12.814Z,26.15
2019-04-03T01:06:17.335Z,28.75
2019-04-03T01:07:21.793Z,27.13
2019-04-03T01:08:29.033Z,27.85
2019-04-03T01:09:33.058Z,25.27
2019-04-03T01:10:37.517Z,26.17
2019-04-03T01:11:41.976Z,28.67
2019-04-03T01:12:46.582Z,27.90
2019-04-03T01:13:51.054Z,26.50
2019-04-03T01:14:55.507Z,30.30
2019-04-03T01:16:02.080Z,26.87
2019-04-03T01:17:06.396Z,29.55
2019-04-03T01:18:10.894Z,27.02
2019-04-03T01:19:15.687Z,30.82
2019-04-03T01:20:20.141Z,27.48
2019-04-03T01:21:24.594Z,28.23
2019-04-03T01:22:29.054Z,27.67
2019-04-03T01:23:33.682Z,28.42
2019-04-03T01:24:38.810Z,27.82
2019-04-03T01:25:43.819Z,27.67
2019-04-03T01:26:49.236Z,30.57
2019-04-03T01:27:54.250Z,29.05
2019-04-03T01:28:59.123Z,25.68
2019-04-03T01:30:03.961Z,28.30
2019-04-03T01:31:08.556Z,29.02
2019-04-03T01:32:15.509Z,30.15
2019-04-03T01:33:19.165Z,32.23
2019-04-03T01:34:23.646Z,29.00
2019-04-03T01:35:28.170Z,29.30
2019-04-03T01:36:32.938Z,37.17
2019-04-03T01:37:37.765Z,37.30
2019-04-03T01:38:42.223Z,33.02
2019-04-03T01:39:46.700Z,31.07
2019-04-03T01:40:51.236Z,26.93
2019-04-03T01:41:56.664Z,28.05
2019-04-03T01:43:01.211Z,31.12
2019-04-03T01:44:05.657Z,30.20
2019-04-03T01:45:10.136Z,35.45
2019-04-03T01:46:14.680Z,27.93
2019-04-03T01:47:19.130Z,30.52
2019-04-03T01:48:23.587Z,32.83
2019-04-03T01:49:28.330Z,30.25
2019-04-03T01:50:33.295Z,29.30
2019-04-03T01:51:37.760Z,30.62
2019-04-03T01:52:42.227Z,27.45
2019-04-03T01:53:46.685Z,31.57
2019-04-03T01:54:51.531Z,30.32
2019-04-03T01:55:56.318Z,31.35
2019-04-03T01:57:00.839Z,29.55
2019-04-03T01:58:06.547Z,31.77
2019-04-03T01:59:11.538Z,28.25
2019-04-03T02:00:16.153Z,28.98
2019-04-03T02:01:20.672Z,32.88
2019-04-03T02:02:25.433Z,29.90
2019-04-03T02:03:30.433Z,34.67
2019-04-03T02:04:35.187Z,28.10
2019-04-03T02:05:39.646Z,30.25
2019-04-03T02:06:44.424Z,27.30
2019-04-03T02:07:48.866Z,30.50
2019-04-03T02:08:53.458Z,28.75
2019-04-03T02:09:58.251Z,29.48
2019-04-03T02:11:02.895Z,32.67
2019-04-03T02:12:07.494Z,28.80
2019-04-03T02:13:11.969Z,31.42
2019-04-03T02:14:16.425Z,32.45
2019-04-03T02:15:21.545Z,32.08
2019-04-03T02:16:26.627Z,31.20
2019-04-03T02:17:31.138Z,30.05
2019-04-03T02:18:35.537Z,32.48
2019-04-03T02:19:40.449Z,32.05
2019-04-03T02:20:45.222Z,31.62
2019-04-03T02:21:50.755Z,30.97
2019-04-03T02:22:55.282Z,31.97
2019-04-03T02:24:01.167Z,26.77
2019-04-03T02:25:06.476Z,32.15
2019-04-03T02:26:10.929Z,27.60
2019-04-03T02:27:15.383Z,34.18
2019-04-03T02:28:20.104Z,31.77
2019-04-03T02:29:24.684Z,29.80
2019-04-03T02:30:29.354Z,31.95
2019-04-03T02:31:33.853Z,35.43
2019-04-03T02:32:38.317Z,34.27
2019-04-03T02:33:42.765Z,33.40
2019-04-03T02:34:47.343Z,35.50
2019-04-03T02:35:52.228Z,32.83
2019-04-03T02:36:56.720Z,32.93
2019-04-03T02:38:01.481Z,32.75
2019-04-03T02:39:06.658Z,32.67
2019-04-03T02:40:12.093Z,34.67
2019-04-03T02:41:16.682Z,33.48
2019-04-03T02:42:21.621Z,32.28
2019-04-03T02:43:26.465Z,34.73
2019-04-03T02:44:30.895Z,30.92
2019-04-03T02:45:35.545Z,37.53
2019-04-03T02:46:40.000Z,36.10
2019-04-03T02:47:44.455Z,36.00
2019-04-03T02:48:49.003Z,35.00
2019-04-03T02:49:53.439Z,33.67
2019-04-03T02:50:58.865Z,30.55
2019-04-03T02:52:03.759Z,31.85
2019-04-03T02:53:08.599Z,35.25
2019-04-03T02:54:34.427Z,33.95
2019-04-03T02:55:39.026Z,31.97
2019-04-03T02:56:45.207Z,30.32
2019-04-03T02:57:49.975Z,33.23
2019-04-03T02:58:55.379Z,32.60
2019-04-03T03:00:00.666Z,30.23
2019-04-03T03:01:07.961Z,29.52
2019-04-03T03:02:13.255Z,32.45
2019-04-03T03:03:18.643Z,35.75
2019-04-03T03:04:23.767Z,29.40
2019-04-03T03:05:29.342Z,34.03
2019-04-03T03:06:34.178Z,31.68
2019-04-03T03:07:38.841Z,33.88
2019-04-03T03:08:44.150Z,33.60
2019-04-03T03:09:48.674Z,29.98
2019-04-03T03:10:53.622Z,31.87
2019-04-03T03:11:59.614Z,35.10
2019-04-03T03:13:04.734Z,33.58
2019-04-03T03:14:10.281Z,35.90
2019-04-03T03:15:15.053Z,35.38
2019-04-03T03:16:19.871Z,30.35
2019-04-03T03:17:24.796Z,39.48
2019-04-03T03:18:30.380Z,33.73
2019-04-03T03:19:34.925Z,32.25
2019-04-03T03:20:41.339Z,35.60
2019-04-03T03:21:47.052Z,29.75
2019-04-03T03:22:52.355Z,33.48
2019-04-03T03:23:57.750Z,30.95
2019-04-03T03:25:02.961Z,29.55
2019-04-03T03:26:07.574Z,33.83
2019-04-03T03:27:12.382Z,35.95
2019-04-03T03:28:17.199Z,35.78
2019-04-03T03:29:26.319Z,35.28
2019-04-03T03:30:42.233Z,36.15
2019-04-03T03:32:01.508Z,33.10
2019-04-03T03:32:43.417Z,31.07
2019-04-03T03:33:48.968Z,31.97
2019-04-03T03:35:06.961Z,35.65
2019-04-03T03:36:01.453Z,31.70
2019-04-03T03:37:06.810Z,34.35
2019-04-03T03:38:12.802Z,31.62
2019-04-03T03:39:17.895Z,34.60
2019-04-03T03:40:22.708Z,34.23
2019-04-03T03:41:27.459Z,34.13
2019-04-03T03:42:32.758Z,32.88
2019-04-03T03:43:38.977Z,34.88
2019-04-03T03:44:45.920Z,35.38
2019-04-03T03:45:52.575Z,34.23
2019-04-03T03:47:01.477Z,37.15
2019-04-03T03:48:08.563Z,39.53
2019-04-03T03:49:16.260Z,33.48
2019-04-03T03:50:24.137Z,34.03
2019-04-03T03:51:29.792Z,33.67
2019-04-03T03:52:36.673Z,33.88
2019-04-03T03:53:44.781Z,36.93
2019-04-03T03:54:51.124Z,31.57
2019-04-03T03:55:58.685Z,34.73
2019-04-03T03:57:03.940Z,30.50
2019-04-03T03:58:12.530Z,33.83
2019-04-03T03:59:18.799Z,34.45
2019-04-03T04:00:24.367Z,37.35
2019-04-03T04:01:31.679Z,33.75
2019-04-03T04:02:37.892Z,38.30
2019-04-03T04:03:43.389Z,34.30
2019-04-03T04:04:49.439Z,34.45
2019-04-03T04:05:56.241Z,34.73
2019-04-03T04:07:04.446Z,37.73
2019-04-03T04:08:10.795Z,40.83
2019-04-03T04:09:17.127Z,34.48
2019-04-03T04:10:25.187Z,36.95
2019-04-03T04:11:31.067Z,31.97
2019-04-03T04:12:39.800Z,35.65
2019-04-03T04:13:41.737Z,36.15
2019-04-03T04:14:46.453Z,37.38
2019-04-03T04:15:51.064Z,34.53
2019-04-03T04:16:56.214Z,40.80
2019-04-03T04:18:00.687Z,37.03
2019-04-03T04:19:05.727Z,35.65
2019-04-03T04:20:11.064Z,42.05
2019-04-03T04:21:21.122Z,36.85
2019-04-03T04:22:27.068Z,40.00
2019-04-03T04:23:32.785Z,40.03
2019-04-03T04:24:37.396Z,34.50
2019-04-03T04:25:43.650Z,33.13
2019-04-03T04:26:49.885Z,37.03
2019-04-03T04:27:54.622Z,39.27
2019-04-03T04:28:59.806Z,35.68
2019-04-03T04:30:06.180Z,34.08
2019-04-03T04:31:12.980Z,33.67
2019-04-03T04:32:17.358Z,36.25
2019-04-03T04:33:21.957Z,39.73
2019-04-03T04:34:26.449Z,32.90
2019-04-03T04:35:31.313Z,36.05
2019-04-03T04:36:35.795Z,33.88
2019-04-03T04:37:40.782Z,34.85
2019-04-03T04:38:45.315Z,37.45
2019-04-03T04:39:49.780Z,36.75
2019-04-03T04:40:54.234Z,37.13
2019-04-03T04:41:58.791Z,37.78
2019-04-03T04:43:04.282Z,36.48
2019-04-03T04:44:09.968Z,39.10
2019-04-03T04:45:14.839Z,32.73
2019-04-03T04:46:19.302Z,36.68
2019-04-03T04:47:24.090Z,37.65
2019-04-03T04:48:28.763Z,35.92
2019-04-03T04:49:33.324Z,39.92
2019-04-03T04:50:37.786Z,36.80
2019-04-03T04:51:42.448Z,43.55
2019-04-03T04:52:47.110Z,38.13
2019-04-03T04:53:51.575Z,36.58
2019-04-03T04:54:56.333Z,33.67
2019-04-03T04:56:00.827Z,37.73
2019-04-03T04:57:06.909Z,34.23
2019-04-03T04:58:12.252Z,35.15
2019-04-03T04:59:16.906Z,34.38
2019-04-03T05:00:21.348Z,35.50
2019-04-03T05:01:26.139Z,36.38
2019-04-03T05:02:30.630Z,37.88
2019-04-03T05:03:35.418Z,36.28
2019-04-03T05:04:39.884Z,39.40
2019-04-03T05:05:44.640Z,38.40
2019-04-03T05:06:49.072Z,39.18
2019-04-03T05:07:53.537Z,40.67
2019-04-03T05:08:58.075Z,36.13
2019-04-03T05:10:03.992Z,35.03
2019-04-03T05:11:09.307Z,39.92
2019-04-03T05:12:13.875Z,42.05
2019-04-03T05:13:18.614Z,36.90
2019-04-03T05:14:23.106Z,37.78
2019-04-03T05:15:27.841Z,38.02
2019-04-03T05:16:32.389Z,37.35
2019-04-03T05:17:36.853Z,40.83
2019-04-03T05:18:41.403Z,38.30
2019-04-03T05:19:46.810Z,39.90
2019-04-03T05:20:52.012Z,37.60
2019-04-03T05:21:56.664Z,35.90
2019-04-03T05:23:01.142Z,36.42
2019-04-03T05:24:13.111Z,40.40
2019-04-03T05:25:12.079Z,30.75
2019-04-03T05:26:16.635Z,41.10
2019-04-03T05:27:21.093Z,38.17
2019-04-03T05:28:26.155Z,36.88
2019-04-03T05:29:30.780Z,37.58
2019-04-03T05:30:37.532Z,35.60
2019-04-03T05:31:41.783Z,42.48
2019-04-03T05:32:47.597Z,34.13
2019-04-03T05:33:52.123Z,38.63
2019-04-03T05:34:57.831Z,34.60
2019-04-03T05:36:02.356Z,39.78
2019-04-03T05:37:06.862Z,38.58
2019-04-03T05:38:11.322Z,37.23
2019-04-03T05:39:15.791Z,55.40
2019-04-03T05:40:21.222Z,67.20
2019-04-03T05:41:28.361Z,66.12
2019-04-03T05:42:32.588Z,42.08
2019-04-03T05:43:37.052Z,40.83
2019-04-03T05:44:41.864Z,36.85
2019-04-03T05:45:46.420Z,35.52
2019-04-03T05:46:50.866Z,39.98
2019-04-03T05:47:55.397Z,38.58
2019-04-03T05:49:00.125Z,38.53
2019-04-03T05:50:06.758Z,40.35
2019-04-03T05:51:11.215Z,33.40
2019-04-03T05:52:16.069Z,40.45
2019-04-03T05:53:20.513Z,36.58
2019-04-03T05:54:25.160Z,38.42
2019-04-03T05:55:29.911Z,38.33
2019-04-03T05:56:34.445Z,39.35
2019-04-03T05:57:39.090Z,34.85
2019-04-03T05:58:54.590Z,38.25
2019-04-03T05:59:59.500Z,39.88
2019-04-03T06:01:04.125Z,39.30
2019-04-03T06:02:14.125Z,37.53
2019-04-03T06:03:08.235Z,40.80
2019-04-03T06:04:13.018Z,40.52
2019-04-03T06:05:19.271Z,36.75
2019-04-03T06:06:24.062Z,44.45
2019-04-03T06:07:28.547Z,43.48
2019-04-03T06:08:34.758Z,39.58
2019-04-03T06:09:39.497Z,43.28
2019-04-03T06:10:44.016Z,43.70
2019-04-03T06:11:48.509Z,35.23
2019-04-03T06:12:52.995Z,37.50
2019-04-03T06:13:57.471Z,43.55
2019-04-03T06:15:02.021Z,40.28
2019-04-03T06:16:07.033Z,41.40
2019-04-03T06:17:12.243Z,35.92
2019-04-03T06:18:17.989Z,36.48
2019-04-03T06:19:22.598Z,34.58
2019-04-03T06:20:27.056Z,34.30
2019-04-03T06:21:31.513Z,39.10
2019-04-03T06:22:36.004Z,36.08
2019-04-03T06:23:40.696Z,36.35
2019-04-03T06:24:45.205Z,41.83
2019-04-03T06:25:50.205Z,37.33
2019-04-03T06:26:54.913Z,35.25
2019-04-03T06:27:59.714Z,38.35
2019-04-03T06:29:07.216Z,36.30
2019-04-03T06:30:11.094Z,37.85
2019-04-03T06:31:15.554Z,36.73
2019-04-03T06:32:20.368Z,36.08
2019-04-03T06:33:24.951Z,37.08
2019-04-03T06:34:29.724Z,41.55
2019-04-03T06:35:35.179Z,41.40
2019-04-03T06:36:39.849Z,40.25
2019-04-03T06:37:44.469Z,36.05
2019-04-03T06:38:48.953Z,35.85
2019-04-03T06:39:53.709Z,41.37
2019-04-03T06:40:58.592Z,40.88
2019-04-03T06:42:03.259Z,43.55
2019-04-03T06:43:07.767Z,37.98
2019-04-03T06:44:12.236Z,39.98
2019-04-03T06:45:16.990Z,37.05
2019-04-03T06:46:21.439Z,38.58
2019-04-03T06:47:26.206Z,36.80
2019-04-03T06:48:30.715Z,35.28
2019-04-03T06:49:35.632Z,37.63
2019-04-03T06:50:40.204Z,36.65
2019-04-03T06:51:44.757Z,36.15
2019-04-03T06:52:49.175Z,37.10
2019-04-03T06:53:53.677Z,36.70
2019-04-03T06:54:58.402Z,41.88
2019-04-03T06:56:03.304Z,34.80
2019-04-03T06:57:08.118Z,35.63
2019-04-03T06:58:12.831Z,38.25
2019-04-03T06:59:17.479Z,35.05
2019-04-03T07:00:23.505Z,33.38
2019-04-03T07:01:28.051Z,35.50
2019-04-03T07:02:32.526Z,38.23
2019-04-03T07:03:37.021Z,38.67
2019-04-03T07:04:41.490Z,37.78
2019-04-03T07:05:46.322Z,36.83
2019-04-03T07:06:51.103Z,32.70
2019-04-03T07:07:55.590Z,37.08
2019-04-03T07:09:00.077Z,36.17
2019-04-03T07:10:08.864Z,34.30
2019-04-03T07:11:22.745Z,38.35
2019-04-03T07:12:18.560Z,36.58
2019-04-03T07:13:23.062Z,38.95
2019-04-03T07:14:27.550Z,37.15
2019-04-03T07:15:32.010Z,35.38
2019-04-03T07:16:38.594Z,38.15
2019-04-03T07:17:42.644Z,34.75
2019-04-03T07:18:47.117Z,33.45
2019-04-03T07:19:51.905Z,36.65
2019-04-03T07:20:56.827Z,34.83
2019-04-03T07:22:01.303Z,35.00
2019-04-03T07:23:05.771Z,37.00
2019-04-03T07:24:10.265Z,38.23
2019-04-03T07:25:14.775Z,36.80
2019-04-03T07:26:19.200Z,34.13
2019-04-03T07:27:23.985Z,39.33
2019-04-03T07:28:30.407Z,32.38
2019-04-03T07:29:34.971Z,34.25
2019-04-03T07:30:39.405Z,35.20
2019-04-03T07:31:44.181Z,41.55
2019-04-03T07:32:49.614Z,36.20
2019-04-03T07:33:55.937Z,36.75
2019-04-03T07:35:01.242Z,37.35
2019-04-03T07:36:05.826Z,35.92
2019-04-03T07:37:10.244Z,32.05
2019-04-03T07:38:15.062Z,36.03
2019-04-03T07:39:19.935Z,35.45
2019-04-03T07:40:24.497Z,35.10
2019-04-03T07:41:29.042Z,35.90
2019-04-03T07:42:33.522Z,33.65
2019-04-03T07:43:38.342Z,33.13
2019-04-03T07:44:42.835Z,34.85
2019-04-03T07:45:47.671Z,34.48
2019-04-03T07:46:54.769Z,32.23
2019-04-03T07:47:58.598Z,34.88
2019-04-03T07:49:03.141Z,34.53
2019-04-03T07:50:11.233Z,38.13
2019-04-03T07:51:15.445Z,39.83
2019-04-03T07:52:19.893Z,31.87
2019-04-03T07:53:24.362Z,30.77
2019-04-03T07:54:29.036Z,36.33
2019-04-03T07:55:34.843Z,29.70
2019-04-03T07:56:40.278Z,37.88
2019-04-03T07:57:44.738Z,32.53
2019-04-03T07:58:49.199Z,32.70
2019-04-03T07:59:53.687Z,31.90
2019-04-03T08:00:58.158Z,36.38
2019-04-03T08:02:03.161Z,35.90
2019-04-03T08:03:07.652Z,35.20
2019-04-03T08:04:15.315Z,34.00
2019-04-03T08:05:18.494Z,32.75
2019-04-03T08:06:23.610Z,33.13
2019-04-03T08:07:28.284Z,30.70
2019-04-03T08:08:33.033Z,30.60
2019-04-03T08:09:37.790Z,31.73
2019-04-03T08:10:42.275Z,31.23
2019-04-03T08:11:46.737Z,38.33
2019-04-03T08:12:51.545Z,36.10
2019-04-03T08:13:56.012Z,33.55
2019-04-03T08:15:00.879Z,32.05
2019-04-03T08:16:05.412Z,32.88
2019-04-03T08:17:09.911Z,33.18
2019-04-03T08:18:14.352Z,37.33
2019-04-03T08:19:18.815Z,39.65
2019-04-03T08:20:24.019Z,30.45
2019-04-03T08:21:30.530Z,33.05
2019-04-03T08:22:35.777Z,32.23
2019-04-03T08:23:40.661Z,33.50
2019-04-03T08:24:45.122Z,31.68
2019-04-03T08:25:49.603Z,35.20
2019-04-03T08:26:54.524Z,31.23
2019-04-03T08:28:00.023Z,38.90
2019-04-03T08:29:04.885Z,34.43
2019-04-03T08:30:09.800Z,33.85
2019-04-03T08:31:14.549Z,34.00
2019-04-03T08:32:19.010Z,29.55
2019-04-03T08:33:26.282Z,33.95
2019-04-03T08:34:31.735Z,34.33
2019-04-03T08:35:36.143Z,30.88
2019-04-03T08:36:40.941Z,32.67
2019-04-03T08:37:45.694Z,33.58
2019-04-03T08:38:50.175Z,31.07
2019-04-03T08:39:57.394Z,29.92
2019-04-03T08:41:03.530Z,32.45
2019-04-03T08:42:07.232Z,32.35
2019-04-03T08:43:11.898Z,35.40
2019-04-03T08:44:16.693Z,32.48
2019-04-03T08:45:22.258Z,32.95
2019-04-03T08:46:26.659Z,31.40
2019-04-03T08:47:31.122Z,31.95
2019-04-03T08:48:35.585Z,29.30
2019-04-03T08:49:40.049Z,31.65
2019-04-03T08:50:44.601Z,30.32
2019-04-03T08:51:49.066Z,34.63
2019-04-03T08:52:53.526Z,32.05
2019-04-03T08:53:58.289Z,36.20
2019-04-03T08:55:03.101Z,32.23
2019-04-03T08:56:07.834Z,33.67
2019-04-03T08:57:12.669Z,33.90
2019-04-03T08:58:17.194Z,37.03
2019-04-03T08:59:21.802Z,32.38
2019-04-03T09:00:26.570Z,33.73
2019-04-03T09:01:31.299Z,27.35
2019-04-03T09:02:35.756Z,37.20
2019-04-03T09:03:40.221Z,31.45
2019-04-03T09:04:47.495Z,32.88
2019-04-03T09:05:52.032Z,35.17
2019-04-03T09:06:57.024Z,36.63
2019-04-03T09:08:01.484Z,30.80
2019-04-03T09:09:09.318Z,33.53
2019-04-03T09:10:14.767Z,30.50
2019-04-03T09:11:19.550Z,31.07
2019-04-03T09:12:24.237Z,33.45
2019-04-03T09:13:28.961Z,30.20
2019-04-03T09:14:33.717Z,33.13
2019-04-03T09:15:38.480Z,33.13
2019-04-03T09:16:43.045Z,30.12
2019-04-03T09:17:47.505Z,32.00
2019-04-03T09:18:51.975Z,31.37
2019-04-03T09:19:57.350Z,30.68
2019-04-03T09:21:01.975Z,32.73
2019-04-03T09:22:06.728Z,30.48
2019-04-03T09:23:11.191Z,30.20
2019-04-03T09:24:15.932Z,31.57
2019-04-03T09:25:20.696Z,35.10
2019-04-03T09:26:25.408Z,31.77
2019-04-03T09:27:30.073Z,27.20
2019-04-03T09:28:35.234Z,30.92
2019-04-03T09:29:39.680Z,28.55
2019-04-03T09:30:46.817Z,30.15
2019-04-03T09:31:53.120Z,29.15
2019-04-03T09:32:59.888Z,31.27
2019-04-03T09:34:04.292Z,30.25
2019-04-03T09:35:09.396Z,31.82
2019-04-03T09:36:14.159Z,26.77
2019-04-03T09:37:18.835Z,27.13
2019-04-03T09:38:23.274Z,28.30
2019-04-03T09:39:27.733Z,28.12
2019-04-03T09:40:32.202Z,28.92
2019-04-03T09:41:36.688Z,28.42
2019-04-03T09:42:41.438Z,28.95
2019-04-03T09:43:45.896Z,31.15
2019-04-03T09:44:50.366Z,26.75
2019-04-03T09:45:55.156Z,31.25
2019-04-03T09:47:02.927Z,30.55
2019-04-03T09:48:06.309Z,29.63
2019-04-03T09:49:10.776Z,29.63
2019-04-03T09:50:17.039Z,27.90
2019-04-03T09:51:22.773Z,26.57
2019-04-03T09:52:37.982Z,26.62
2019-04-03T09:53:34.394Z,28.30
2019-04-03T09:54:39.403Z,25.72
2019-04-03T09:55:43.880Z,29.95
2019-04-03T09:56:57.784Z,31.68
2019-04-03T09:57:54.526Z,32.67
2019-04-03T09:58:59.319Z,24.25
2019-04-03T10:00:10.586Z,30.37
2019-04-03T10:01:17.943Z,24.50
2019-04-03T10:02:22.267Z,28.83
2019-04-03T10:03:27.017Z,25.45
2019-04-03T10:04:31.479Z,30.10
2019-04-03T10:05:36.010Z,25.48
2019-04-03T10:06:40.511Z,28.55
2019-04-03T10:07:46.061Z,25.40
2019-04-03T10:08:50.665Z,26.97
2019-04-03T10:09:55.128Z,27.55
2019-04-03T10:10:59.608Z,26.37
2019-04-03T10:12:04.377Z,27.55
2019-04-03T10:13:08.876Z,28.12
2019-04-03T10:14:13.333Z,27.42
2019-04-03T10:15:19.124Z,27.10
2019-04-03T10:16:24.244Z,25.97
2019-04-03T10:17:29.018Z,24.20
2019-04-03T10:18:33.480Z,27.22
2019-04-03T10:19:38.110Z,24.50
2019-04-03T10:20:43.108Z,33.18
2019-04-03T10:21:47.563Z,28.52
2019-04-03T10:22:52.028Z,28.40
2019-04-03T10:23:57.711Z,25.65
2019-04-03T10:25:05.101Z,25.90
2019-04-03T10:26:09.609Z,27.93
2019-04-03T10:27:14.533Z,30.72
2019-04-03T10:28:19.265Z,24.80
2019-04-03T10:29:24.074Z,23.25
2019-04-03T10:30:28.806Z,27.80
2019-04-03T10:31:33.268Z,31.90
2019-04-03T10:32:37.916Z,26.25
2019-04-03T10:33:42.372Z,42.80
2019-04-03T10:34:46.838Z,27.13
2019-04-03T10:35:52.372Z,28.47
2019-04-03T10:36:57.037Z,26.70
2019-04-03T10:38:01.512Z,28.23
2019-04-03T10:39:09.495Z,30.17
2019-04-03T10:40:15.541Z,24.25
2019-04-03T10:41:20.517Z,28.10
2019-04-03T10:42:25.278Z,26.65
2019-04-03T10:43:30.426Z,27.45
2019-04-03T10:44:35.256Z,29.23
2019-04-03T10:45:40.720Z,25.85
2019-04-03T10:46:45.745Z,24.95
2019-04-03T10:47:50.200Z,25.95
2019-04-03T10:48:54.915Z,28.98
2019-04-03T10:49:59.671Z,27.35
2019-04-03T10:51:04.818Z,26.12
2019-04-03T10:52:09.545Z,28.35
2019-04-03T10:53:15.582Z,30.55
2019-04-03T10:54:21.905Z,28.17
2019-04-03T10:55:28.376Z,29.85
2019-04-03T10:56:32.951Z,28.27
2019-04-03T10:57:37.504Z,30.32
2019-04-03T10:58:43.610Z,30.57
2019-04-03T10:59:53.510Z,34.18
2019-04-03T11:00:57.210Z,31.07
2019-04-03T11:02:01.941Z,30.65
2019-04-03T11:03:06.725Z,29.63
2019-04-03T11:04:11.459Z,27.45
2019-04-03T11:05:17.272Z,26.95
2019-04-03T11:06:21.732Z,30.25
2019-04-03T11:07:26.227Z,26.85
2019-04-03T11:08:30.690Z,29.00
2019-04-03T11:09:35.159Z,29.55
2019-04-03T11:10:39.946Z,30.52
2019-04-03T11:11:44.411Z,26.75
2019-04-03T11:12:48.890Z,29.63
2019-04-03T11:13:53.351Z,30.05
2019-04-03T11:14:57.813Z,28.47
2019-04-03T11:16:02.390Z,31.02
2019-04-03T11:17:07.148Z,31.37
2019-04-03T11:18:11.596Z,33.05
2019-04-03T11:19:16.061Z,25.40
2019-04-03T11:20:20.884Z,29.40
2019-04-03T11:21:25.636Z,30.40
2019-04-03T11:22:40.370Z,28.47
2019-04-03T11:23:42.263Z,28.98
2019-04-03T11:24:44.055Z,28.57
2019-04-03T11:25:48.573Z,29.60
2019-04-03T11:26:53.200Z,26.55
2019-04-03T11:27:57.695Z,28.80
2019-04-03T11:29:02.789Z,29.35
2019-04-03T11:30:12.202Z,28.10
2019-04-03T11:31:25.357Z,29.85
2019-04-03T11:32:23.722Z,26.70
2019-04-03T11:33:28.183Z,29.75
2019-04-03T11:34:32.645Z,28.57
2019-04-03T11:35:37.479Z,29.35
2019-04-03T11:36:42.303Z,27.95
2019-04-03T11:37:46.763Z,28.42
2019-04-03T11:38:51.248Z,26.97
2019-04-03T11:40:02.436Z,27.20
2019-04-03T11:41:12.053Z,28.45
2019-04-03T11:42:08.037Z,27.00
2019-04-03T11:43:12.671Z,28.52
2019-04-03T11:44:17.209Z,29.95
2019-04-03T11:45:22.445Z,29.57
2019-04-03T11:46:26.873Z,30.70
2019-04-03T11:47:31.338Z,31.15
2019-04-03T11:48:35.829Z,29.12
2019-04-03T11:49:40.660Z,27.15
2019-04-03T11:50:45.313Z,28.00
2019-04-03T11:51:49.857Z,31.00
2019-04-03T11:52:54.342Z,29.00
2019-04-03T11:53:59.088Z,29.98
2019-04-03T11:55:04.620Z,29.30
2019-04-03T11:56:09.048Z,25.72
2019-04-03T11:57:14.012Z,32.13
2019-04-03T11:58:21.135Z,30.05
2019-04-03T11:59:26.207Z,31.07
2019-04-03T12:00:34.751Z,28.92
2019-04-03T12:01:39.216Z,28.25
2019-04-03T12:02:44.761Z,30.30
2019-04-03T12:03:51.491Z,28.73
2019-04-03T12:04:56.036Z,31.42
2019-04-03T12:06:00.500Z,30.65
2019-04-03T12:07:05.043Z,32.73
2019-04-03T12:08:11.899Z,34.08
2019-04-03T12:09:16.207Z,31.70
2019-04-03T12:10:20.695Z,25.55
2019-04-03T12:11:25.438Z,30.75
2019-04-03T12:12:30.048Z,32.28
2019-04-03T12:13:34.524Z,31.37
2019-04-03T12:14:39.102Z,26.33
2019-04-03T12:15:43.528Z,24.63
2019-04-03T12:16:48.181Z,27.45
2019-04-03T12:17:52.629Z,30.02
2019-04-03T12:18:57.164Z,29.72
2019-04-03T12:20:02.332Z,27.15
2019-04-03T12:21:09.886Z,25.02
2019-04-03T12:22:13.235Z,27.15
2019-04-03T12:23:18.080Z,27.42
2019-04-03T12:24:22.959Z,27.55
2019-04-03T12:25:27.399Z,24.10
2019-04-03T12:26:31.927Z,28.87
2019-04-03T12:27:36.826Z,30.43
2019-04-03T12:28:41.885Z,24.45
2019-04-03T12:29:46.456Z,28.20
2019-04-03T12:30:50.949Z,25.25
2019-04-03T12:31:55.417Z,28.62
2019-04-03T12:33:00.009Z,27.80
2019-04-03T12:34:06.727Z,28.62
2019-04-03T12:35:11.747Z,30.20
2019-04-03T12:36:16.252Z,32.10
2019-04-03T12:37:20.712Z,27.17
2019-04-03T12:38:25.491Z,27.27
2019-04-03T12:39:30.047Z,28.15
2019-04-03T12:40:34.671Z,27.48
2019-04-03T12:41:39.218Z,29.00
2019-04-03T12:42:44.496Z,29.20
2019-04-03T12:43:50.029Z,25.40
2019-04-03T12:44:55.915Z,26.52
2019-04-03T12:46:02.373Z,27.48
2019-04-03T12:47:12.111Z,25.77
2019-04-03T12:48:12.735Z,24.40
2019-04-03T12:49:17.464Z,31.80
2019-04-03T12:50:21.948Z,22.55
2019-04-03T12:51:26.525Z,25.50
2019-04-03T12:52:31.153Z,25.48
2019-04-03T12:53:35.662Z,30.12
2019-04-03T12:54:40.456Z,26.42
2019-04-03T12:55:45.650Z,23.12
2019-04-03T12:56:50.334Z,26.70
2019-04-03T12:57:55.147Z,25.23
2019-04-03T12:58:59.667Z,25.92
2019-04-03T13:00:06.614Z,26.80
2019-04-03T13:01:12.380Z,24.37
2019-04-03T13:02:17.358Z,23.05
2019-04-03T13:03:24.227Z,24.90
2019-04-03T13:04:30.265Z,24.80
2019-04-03T13:05:36.319Z,26.45
2019-04-03T13:06:41.893Z,23.70
2019-04-03T13:07:47.555Z,25.90
2019-04-03T13:08:52.835Z,28.12
2019-04-03T13:09:57.322Z,29.63
2019-04-03T13:11:01.776Z,26.45
2019-04-03T13:12:06.709Z,26.37
2019-04-03T13:13:12.321Z,24.85
2019-04-03T13:14:24.257Z,22.90
2019-04-03T13:15:23.658Z,26.90
2019-04-03T13:16:28.087Z,30.85
2019-04-03T13:17:32.883Z,25.27
2019-04-03T13:18:37.632Z,24.52
2019-04-03T13:19:42.093Z,29.23
2019-04-03T13:20:46.577Z,26.27
2019-04-03T13:21:51.405Z,25.95
2019-04-03T13:22:56.106Z,30.88
2019-04-03T13:24:00.871Z,26.73
2019-04-03T13:25:09.149Z,25.23
2019-04-03T13:26:14.364Z,30.32
2019-04-03T13:27:18.870Z,26.35
2019-04-03T13:28:23.845Z,25.02
2019-04-03T13:29:28.649Z,29.32
2019-04-03T13:30:34.195Z,27.50
2019-04-03T13:31:38.663Z,28.57
2019-04-03T13:32:43.156Z,26.48
2019-04-03T13:33:47.924Z,30.20
2019-04-03T13:34:52.384Z,26.87
2019-04-03T13:35:57.265Z,28.05
2019-04-03T13:37:02.189Z,26.48
2019-04-03T13:38:07.265Z,25.45
2019-04-03T13:39:12.026Z,26.77
2019-04-03T13:40:16.731Z,29.92
2019-04-03T13:41:21.313Z,29.15
2019-04-03T13:42:25.798Z,29.98
2019-04-03T13:43:30.531Z,27.30
2019-04-03T13:44:35.416Z,30.85
2019-04-03T13:45:40.033Z,31.57
2019-04-03T13:46:45.331Z,29.55
2019-04-03T13:47:50.280Z,27.93
2019-04-03T13:48:54.913Z,30.82
2019-04-03T13:50:01.955Z,28.55
2019-04-03T13:51:05.632Z,27.90
2019-04-03T13:52:10.757Z,30.37
2019-04-03T13:53:15.259Z,27.02
2019-04-03T13:54:19.724Z,29.90
2019-04-03T13:55:24.472Z,31.65
2019-04-03T13:56:29.256Z,29.57
2019-04-03T13:57:33.803Z,30.23
2019-04-03T13:58:38.409Z,29.42
2019-04-03T13:59:42.901Z,27.45